Farmersville, TX

10:50 PM CST on January 24, 2015 (GMT -0600)
Farmersville (Gaddy West) | Change Station
CLOSE
Current Station
Personal Weather Station
Location: Farmersville, TX
Elevation: 659 ft
Nearby Weather Stations

Elev 659 ft 33.17 °N, 96.36 °W | Updated 9 seconds ago

Clear
Clear
46.0 °F
Feels Like 46 °F
N
0.0
Wind Variable Wind from SSE
Gusts 0.0 mph

Today
High -- | Low -- °F
--% Chance of Precip.
Yesterday
High -- | Low -- °F
Precip. -- in
7:25 AM 5:49 PM
Waxing Crescent, 28% visible
Pressure 30.04 in
Visibility 10.0 miles
Clouds Clear
Windchill 46 °F
Dew Point 37 °F
Humidity 71%
Rainfall 0.00 in
Snow Depth Not available.
UV 0 out of 12
Pollen 7.70 out of 12
Air Quality Not available.
Flu Activity Not available.
METAR KTKI 250353Z AUTO 23008KT 10SM CLR 09/02 A3000 RMK AO2 SLP170 T00890022

More Conditions Fewer Conditions

Pressure 30.04 in
Visibility 10.0 miles
Clouds Clear
Windchill 46 °F
Dew Point 37 °F
Humidity 71%
Rainfall 0.00 in
Snow Depth Not available.
UV 0 out of 12
Pollen 7.70 out of 12
Air Quality Not available.
Flu Activity Not available.
METAR KTKI 250353Z AUTO 23008KT 10SM CLR 09/02 A3000 RMK AO2 SLP170 T00890022

More Conditions Fewer Conditions

10-Day Weather Forecast

Almanac

Astronomy

Jan. 24, 2015 Rise Set
Actual Time
Civil Twilight
Nautical Twilight
Astronomical Twilight
Moon
Length of Visible Light
Length of Day
Tomorrow will be .
, % of the Moon is Illuminated

Today's Extremes

State Highs State Lows

Community

WunderPhotos

Upload Photos

1,789,839 photos uploaded!

WunderBlogs® & News

Nearby

Air Quality

  Air Quality AQ Index Pollutant
Not available.

Snow Depth

Station Depth Elevation

Earthquake Activity

City Distance Mag. Time & Date
Minimum magnitude displayed is 2.5.

Coastal Water Temperatures

Place Temperature

Nearby Weather Stations